Airfield :
LOGIN :

Register | Disclaimer

   EN    FR    IT 

 










Legend :    VFR   Marginal VFR   IFR   Intensive IFR   Very Intensive IFR
Visi :
Ceiling :
>= 8 km
>= 3000ft
5 to 8 km
1000 to 3000 ft
1500m to 5 km
500 to 1000 ft
800 to 1500m
200 to 500 ft
< 800m
< 200 ft
Symbols :   Thunderstorms  Fog  Heavy snow  Heavy precipitations  Wind > 20 kt
SIGMETs :     Misc.  Thunderstorms  Icing  Turbulence  Mountain Waves  Volcanic Ashes






- Airport Elevation : 1345 ft
- IATA code : FRZ


ETHF - Fritzlar

CURRENT METAR :
  • 291220Z 17011KT 9999 FEW024 BKN390 09/02 Q1013 BLU+BLU+

EXPIRED METARs :
  • 291120Z 17012KT 9999 FEW019 SCT370 08/02 Q1014 BLU+BLU+
  • 291020Z 19008KT 9999 SCT018 SCT340 07/02 Q1015 BLU+BLU+
  • 290920Z 17008KT 9999 FEW120 BKN300 05/02 Q1016 BLU+BLU+
  • 290820Z 16005KT 9999 FEW140 SCT300 03/00 Q1016 BLU+BLU+

TAF TAF ETHF
Valid from the 29 at 12:00 until the 29 at 21:00 UTC


291120Z 2912/2921 19008KT 9999 NSW FEW015 SCT300



MET'MAP, your aeronautical weather chart ! - Copyright ORBIFLY December 2007 - Disclaimer

ORBIFLY MET'MAP TEAM :

Programming & Development : Alexandra Zaïnal
Original concept : Baudouin d'Aumeries
Technical & hardware support : Manuel Goepfert
Assistance : Marc-Olivier Méhu




SOURCES & CREDITS :

   NOAA